Time;durP1;ratioP1;P1;durP2;ratioP2;P2;SDS_P1;SDS_P2;PMS_P1;PMS_P2;Temp;Humidity;BMP_temperature;BMP_pressure;BME280_temperature;BME280_humidity;BME280_pressure;Samples;Min_cycle;Max_cycle;Signal;HPM_P1;HPM_P2
2022/07/10 00:00:13;;;;;;;14.90;6.70;;;;;;;16.04;59.49;98937.41;105711;1280;99326;-63
2022/07/10 00:03:01;;;;;;;;;;;;;;;16.00;59.63;98935.23;105929;1280;99351;-64
2022/07/10 00:05:30;;;;;;;20.00;6.90;;;;;;;15.99;59.70;98936.14;105956;1279;113539;-64
2022/07/10 00:07:58;;;;;;;14.40;5.70;;;;;;;15.97;59.50;98935.01;105967;1280;99043;-65
2022/07/10 00:10:28;;;;;;;15.70;5.60;;;;;;;15.93;59.54;98933.23;105924;1279;107743;-65
2022/07/10 00:12:57;;;;;;;17.60;6.10;;;;;;;15.91;59.56;98925.55;105928;1279;97759;-65
2022/07/10 00:15:25;;;;;;;12.50;5.60;;;;;;;15.92;59.66;98930.43;105957;1279;99205;-64
2022/07/10 00:17:53;;;;;;;14.40;6.20;;;;;;;15.91;59.72;98933.20;105879;1279;113757;-64
2022/07/10 00:20:22;;;;;;;14.40;5.50;;;;;;;15.88;59.61;98932.13;105923;1279;99224;-64
2022/07/10 00:22:50;;;;;;;17.30;5.90;;;;;;;15.83;59.59;98926.64;105776;1279;108290;-66
2022/07/10 00:25:18;;;;;;;16.60;5.70;;;;;;;15.83;59.77;98925.30;105751;1279;99363;-66
2022/07/10 00:27:46;;;;;;;16.50;5.60;;;;;;;15.81;59.68;98922.23;105781;1279;99921;-66
2022/07/10 00:30:14;;;;;;;11.10;5.60;;;;;;;15.79;59.76;98920.48;105699;1279;113432;-65
2022/07/10 00:32:42;;;;;;;16.90;6.00;;;;;;;15.79;59.83;98918.45;105795;1279;97064;-65
2022/07/10 00:35:10;;;;;;;15.00;5.30;;;;;;;15.79;59.79;98914.23;105836;1279;107366;-64
2022/07/10 00:37:38;;;;;;;16.10;6.10;;;;;;;15.76;59.77;98912.48;105869;1279;99338;-65
2022/07/10 00:40:07;;;;;;;19.30;6.00;;;;;;;15.75;59.93;98914.51;105913;1279;99296;-64
2022/07/10 00:42:35;;;;;;;15.60;5.20;;;;;;;15.74;59.83;98906.22;105852;1279;112811;-64
2022/07/10 00:45:05;;;;;;;12.30;5.10;;;;;;;15.74;59.89;98907.91;105766;1279;99305;-64
2022/07/10 00:47:32;;;;;;;14.00;5.20;;;;;;;15.73;60.10;98901.85;105888;1279;107741;-64
2022/07/10 00:50:00;;;;;;;16.50;5.40;;;;;;;15.72;59.93;98898.75;105901;1279;99365;-64
2022/07/10 00:52:29;;;;;;;14.70;5.70;;;;;;;15.71;59.95;98896.52;105904;1279;99811;-64
2022/07/10 00:54:58;;;;;;;13.10;5.30;;;;;;;15.71;60.06;98895.45;105820;1279;112866;-65
2022/07/10 00:57:26;;;;;;;13.50;5.20;;;;;;;15.68;60.10;98896.28;105802;1279;99349;-64
2022/07/10 00:59:54;;;;;;;13.20;5.50;;;;;;;15.68;60.10;98892.06;105812;1279;107974;-65
2022/07/10 01:02:22;;;;;;;14.80;6.00;;;;;;;15.67;60.10;98891.77;105811;1279;99330;-64
2022/07/10 01:04:51;;;;;;;14.60;5.00;;;;;;;15.63;60.11;98894.85;105837;1279;99247;-63
2022/07/10 01:07:19;;;;;;;10.00;5.10;;;;;;;15.55;60.17;98890.42;105795;1279;113062;-63
2022/07/10 01:09:47;;;;;;;14.60;5.50;;;;;;;15.53;60.14;98890.60;105765;1279;96738;-63
2022/07/10 01:12:17;;;;;;;14.10;5.20;;;;;;;15.52;60.25;98883.89;105740;1279;108249;-64
2022/07/10 01:14:45;;;;;;;13.00;5.60;;;;;;;15.51;60.26;98885.27;105804;1279;99359;-63
2022/07/10 01:17:14;;;;;;;13.80;5.10;;;;;;;15.49;60.24;98886.14;105766;1279;98352;-65
2022/07/10 01:19:42;;;;;;;11.60;5.50;;;;;;;15.46;60.44;98887.08;105853;1279;111863;-65
2022/07/10 01:22:10;;;;;;;16.00;5.60;;;;;;;15.44;60.42;98883.00;105849;1278;99344;-63
2022/07/10 01:24:37;;;;;;;17.30;6.10;;;;;;;15.42;60.38;98882.13;105756;1279;108232;-64
2022/07/10 01:27:05;;;;;;;17.70;5.70;;;;;;;15.39;60.44;98876.89;105786;1279;99317;-63
2022/07/10 01:29:35;;;;;;;14.70;5.80;;;;;;;15.36;60.38;98873.41;105749;1279;99172;-63
2022/07/10 01:32:04;;;;;;;13.80;5.60;;;;;;;15.33;60.43;98871.73;105820;1279;112572;-64
2022/07/10 01:34:32;;;;;;;10.20;4.90;;;;;;;15.30;60.42;98869.64;105856;1279;99339;-63
2022/07/10 01:37:00;;;;;;;14.70;5.00;;;;;;;15.28;60.45;98871.36;105858;1279;108393;-65
2022/07/10 01:39:28;;;;;;;12.00;4.90;;;;;;;15.25;60.57;98867.86;105834;1279;99956;-63
2022/07/10 01:41:56;;;;;;;12.60;4.90;;;;;;;15.24;60.51;98861.42;105909;1279;99238;-64
2022/07/10 01:44:24;;;;;;;41.00;26.40;;;;;;;15.20;60.55;98856.34;105900;1279;113444;-64
2022/07/10 01:46:52;;;;;;;20.30;8.10;;;;;;;15.17;60.60;98858.98;105888;1279;96576;-64
2022/07/10 01:49:20;;;;;;;15.90;5.80;;;;;;;15.15;60.48;98854.70;105723;1279;108436;-64
2022/07/10 01:51:48;;;;;;;14.80;5.00;;;;;;;15.12;60.60;98847.80;105749;1279;99185;-64
2022/07/10 01:54:16;;;;;;;13.50;4.80;;;;;;;15.10;60.56;98844.09;105756;1279;99107;-65
2022/07/10 01:56:44;;;;;;;11.30;4.70;;;;;;;15.07;60.55;98843.68;105758;1279;113406;-65
2022/07/10 01:59:12;;;;;;;12.40;4.70;;;;;;;15.01;60.46;98839.95;105805;1279;99243;-63
2022/07/10 02:01:40;;;;;;;10.70;4.80;;;;;;;14.91;60.38;98845.56;105707;1279;107167;-63
2022/07/10 02:06:57;;;;;;;10.90;4.50;;;;;;;14.78;60.62;98843.73;105734;1279;99208;-64
2022/07/10 02:09:25;;;;;;;16.20;5.10;;;;;;;14.78;60.68;98843.19;105735;1279;113313;-64
2022/07/10 02:11:53;;;;;;;12.80;5.00;;;;;;;14.77;60.67;98844.55;105779;1279;97949;-65
2022/07/10 02:14:21;;;;;;;15.30;4.90;;;;;;;14.74;60.64;98844.75;105749;1278;107783;-64
2022/07/10 02:16:49;;;;;;;11.60;4.80;;;;;;;14.71;60.68;98840.08;105717;1279;99325;-64
2022/07/10 02:19:17;;;;;;;11.10;5.10;;;;;;;14.66;60.74;98837.24;105737;1279;99337;-62
2022/07/10 02:21:48;;;;;;;8.40;4.40;;;;;;;14.65;60.77;98835.75;105749;1279;113856;-63
2022/07/10 02:24:16;;;;;;;14.20;4.60;;;;;;;14.62;60.83;98835.87;105783;1279;99262;-64
2022/07/10 02:26:44;;;;;;;12.60;4.90;;;;;;;14.59;60.83;98841.91;105763;1279;107764;-63
2022/07/10 02:29:12;;;;;;;12.10;4.60;;;;;;;14.57;60.90;98842.72;105786;1279;99294;-65
2022/07/10 02:31:42;;;;;;;12.80;5.20;;;;;;;14.57;60.93;98846.19;105788;1279;99332;-65
2022/07/10 02:34:15;;;;;;;16.50;5.50;;;;;;;14.55;60.85;98841.00;105778;1279;112770;-62
2022/07/10 02:36:43;;;;;;;13.00;4.70;;;;;;;14.53;61.08;98838.46;105814;1279;99356;-63
2022/07/10 02:39:13;;;;;;;13.00;4.50;;;;;;;14.54;61.14;98836.91;105825;1279;108243;-63
2022/07/10 02:41:41;;;;;;;12.80;4.70;;;;;;;14.57;61.22;98836.19;105791;1279;99324;-64
2022/07/10 02:44:09;;;;;;;9.70;4.50;;;;;;;14.58;61.21;98832.16;105788;1279;99291;-64
2022/07/10 02:46:37;;;;;;;11.40;4.70;;;;;;;14.57;61.34;98845.23;105784;1279;113757;-65
2022/07/10 02:49:05;;;;;;;13.50;5.10;;;;;;;14.58;61.55;98844.84;105820;1279;100400;-65
2022/07/10 02:51:34;;;;;;;12.10;5.10;;;;;;;14.60;61.55;98840.38;105826;1279;107860;-64
2022/07/10 02:54:02;;;;;;;12.90;5.60;;;;;;;14.62;61.51;98837.14;105753;1279;99240;-64
2022/07/10 02:56:30;;;;;;;14.20;5.30;;;;;;;14.63;61.53;98837.05;105759;1279;99276;-64
2022/07/10 02:58:58;;;;;;;19.80;5.20;;;;;;;14.63;61.65;98838.33;105777;1279;112534;-64
2022/07/10 03:01:27;;;;;;;16.50;5.60;;;;;;;14.64;61.65;98836.45;105781;1279;99238;-63
2022/07/10 03:03:55;;;;;;;14.40;5.00;;;;;;;14.61;61.57;98834.69;105811;1279;107836;-64
2022/07/10 03:06:23;;;;;;;12.60;5.50;;;;;;;14.60;61.76;98832.32;105774;1279;99363;-65
2022/07/10 03:08:51;;;;;;;14.40;5.10;;;;;;;14.58;61.79;98827.09;105854;1279;99208;-65
2022/07/10 03:11:19;;;;;;;12.00;5.20;;;;;;;14.60;61.93;98826.43;105802;1278;112390;-64
2022/07/10 03:13:47;;;;;;;13.80;5.20;;;;;;;14.60;61.98;98818.77;105777;1279;99255;-65
2022/07/10 03:16:15;;;;;;;13.00;5.30;;;;;;;14.61;61.98;98819.89;105752;1279;107400;-64
2022/07/10 03:18:45;;;;;;;11.10;5.20;;;;;;;14.62;62.14;98819.30;105723;1281;99346;-63
2022/07/10 03:21:13;;;;;;;16.10;5.50;;;;;;;14.63;62.18;98820.96;105854;1279;96684;-65
2022/07/10 03:23:41;;;;;;;12.60;5.10;;;;;;;14.65;62.28;98820.12;105783;1279;113289;-61
2022/07/10 03:26:09;;;;;;;12.50;4.80;;;;;;;14.65;62.26;98818.29;105775;1279;99276;-65
2022/07/10 03:28:37;;;;;;;14.10;5.40;;;;;;;14.65;62.27;98817.58;105785;1279;108396;-62
2022/07/10 03:31:05;;;;;;;13.10;4.70;;;;;;;14.66;62.39;98811.60;105754;1281;99301;-68
2022/07/10 03:33:34;;;;;;;17.20;5.80;;;;;;;14.67;62.47;98810.27;105846;1279;99127;-64
2022/07/10 03:36:03;;;;;;;13.70;5.70;;;;;;;14.68;62.47;98804.30;105776;1279;113489;-65
2022/07/10 03:38:31;;;;;;;16.80;5.20;;;;;;;14.69;62.51;98812.04;105821;1279;96903;-65
2022/07/10 03:40:59;;;;;;;12.30;4.90;;;;;;;14.70;62.56;98810.01;105796;1279;107557;-63
2022/07/10 03:43:27;;;;;;;13.10;4.90;;;;;;;14.69;62.60;98807.55;105805;1279;99344;-64
2022/07/10 03:45:57;;;;;;;12.70;3.90;;;;;;;14.70;62.59;98808.04;105855;1279;99243;-64
2022/07/10 03:48:25;;;;;;;14.30;4.80;;;;;;;14.71;62.81;98807.95;105659;1279;408762;-63
2022/07/10 03:50:53;;;;;;;10.00;4.50;;;;;;;14.71;62.70;98808.59;105929;1279;99269;-62
2022/07/10 03:53:21;;;;;;;8.90;4.10;;;;;;;14.70;62.79;98802.31;105875;1279;107690;-64
2022/07/10 03:55:49;;;;;;;11.70;4.10;;;;;;;14.69;62.84;98799.86;105844;1279;99213;-64
2022/07/10 03:58:17;;;;;;;11.70;4.60;;;;;;;14.71;62.90;98796.16;105845;1279;99247;-65
2022/07/10 04:00:45;;;;;;;7.10;3.80;;;;;;;14.72;62.88;98796.39;105783;1279;113390;-65
2022/07/10 04:03:13;;;;;;;7.30;4.00;;;;;;;14.73;62.93;98792.76;105751;1279;99267;-63
2022/07/10 04:05:41;;;;;;;7.70;3.90;;;;;;;14.75;63.02;98792.79;105871;1281;108360;-63
2022/07/10 04:08:09;;;;;;;9.50;3.80;;;;;;;14.74;62.98;98797.07;105837;1279;99240;-64
2022/07/10 04:10:38;;;;;;;8.30;4.00;;;;;;;14.77;63.05;98800.05;105939;1279;100412;-66
2022/07/10 04:13:06;;;;;;;11.20;4.40;;;;;;;14.81;63.15;98795.95;105814;1279;112773;-65
2022/07/10 04:15:35;;;;;;;9.80;4.10;;;;;;;14.84;63.14;98792.48;105809;1279;99279;-65
2022/07/10 04:18:03;;;;;;;10.00;3.70;;;;;;;14.86;63.25;98793.89;105815;1279;107966;-64
2022/07/10 04:20:31;;;;;;;13.80;3.90;;;;;;;14.88;63.20;98793.34;105872;1279;99212;-65
2022/07/10 04:22:59;;;;;;;10.10;3.70;;;;;;;14.90;63.26;98788.67;105887;1279;99249;-64
2022/07/10 04:25:27;;;;;;;7.90;3.80;;;;;;;14.90;63.21;98787.80;105865;1279;113061;-63
2022/07/10 04:27:54;;;;;;;11.10;4.60;;;;;;;14.88;63.26;98787.42;105844;1279;99335;-64
2022/07/10 04:30:23;;;;;;;10.20;4.10;;;;;;;14.87;63.33;98783.02;105844;1279;107579;-65
2022/07/10 04:32:50;;;;;;;10.60;4.40;;;;;;;14.87;63.38;98777.52;105840;1279;96646;-64
2022/07/10 04:35:18;;;;;;;14.10;4.70;;;;;;;14.86;63.41;98775.83;105856;1279;96593;-65
2022/07/10 04:37:46;;;;;;;12.00;4.30;;;;;;;14.84;63.39;98772.23;105814;1279;113424;-64
2022/07/10 04:40:14;;;;;;;11.40;4.80;;;;;;;14.83;63.41;98774.65;105874;1279;99077;-63
2022/07/10 04:42:42;;;;;;;11.40;4.50;;;;;;;14.83;63.48;98776.61;105884;1279;108962;-64
2022/07/10 04:45:11;;;;;;;6.50;3.80;;;;;;;14.81;63.35;98776.34;105751;1279;99340;-65
2022/07/10 04:47:39;;;;;;;10.40;4.10;;;;;;;14.72;63.34;98770.15;105768;1280;99307;-65
2022/07/10 04:50:08;;;;;;;10.10;4.80;;;;;;;14.65;63.41;98764.92;105781;1279;112761;-65
2022/07/10 04:52:36;;;;;;;13.70;4.20;;;;;;;14.64;63.60;98764.89;105823;1279;99311;-64
2022/07/10 04:55:05;;;;;;;11.10;4.80;;;;;;;14.67;63.64;98760.79;105789;1279;108799;-64
2022/07/10 04:57:32;;;;;;;11.40;4.80;;;;;;;14.71;63.66;98760.14;105825;1279;96654;-64
2022/07/10 05:00:01;;;;;;;8.60;4.40;;;;;;;14.73;63.64;98759.73;105780;1279;96680;-65
2022/07/10 05:02:29;;;;;;;17.20;5.20;;;;;;;14.73;63.69;98760.63;105820;1279;111923;-64
2022/07/10 05:04:57;;;;;;;9.40;4.70;;;;;;;14.73;63.86;98758.98;105801;1279;99293;-64
2022/07/10 05:07:25;;;;;;;14.50;5.50;;;;;;;14.79;63.94;98758.48;105819;1279;108311;-64
2022/07/10 05:09:54;;;;;;;10.30;4.90;;;;;;;14.87;63.91;98761.13;105790;1279;96729;-64
2022/07/10 05:12:21;;;;;;;11.60;4.70;;;;;;;14.96;64.04;98761.17;105801;1279;99246;-64
2022/07/10 05:14:49;;;;;;;14.50;4.90;;;;;;;15.08;63.97;98755.50;105748;1279;113303;-64
2022/07/10 05:17:18;;;;;;;12.80;5.10;;;;;;;15.22;64.19;98755.30;105781;1279;96651;-63
2022/07/10 05:19:46;;;;;;;10.10;4.90;;;;;;;15.36;64.28;98755.39;105798;1279;108510;-64
2022/07/10 05:22:14;;;;;;;13.50;5.30;;;;;;;15.48;64.19;98756.50;105802;1279;99405;-64
2022/07/10 05:24:43;;;;;;;9.90;5.10;;;;;;;15.61;64.29;98759.88;105713;1281;99327;-65
2022/07/10 05:27:11;;;;;;;13.20;5.00;;;;;;;15.71;64.17;98755.66;105749;1279;113524;-63
2022/07/10 05:29:39;;;;;;;12.60;5.40;;;;;;;15.79;64.01;98756.48;105760;1279;99303;-63
2022/07/10 05:32:08;;;;;;;13.60;5.00;;;;;;;15.87;64.12;98757.05;105782;1279;108402;-60
2022/07/10 05:34:36;;;;;;;14.30;5.00;;;;;;;15.93;64.21;98757.98;105858;1279;99337;-61
2022/07/10 05:37:05;;;;;;;13.10;5.50;;;;;;;16.01;64.17;98756.36;105877;1279;99228;-63
2022/07/10 05:39:33;;;;;;;14.10;5.80;;;;;;;16.06;64.25;98759.00;105880;1279;112860;-61
2022/07/10 05:42:01;;;;;;;14.50;6.10;;;;;;;16.10;63.96;98757.26;105900;1279;99350;-61
2022/07/10 05:44:29;;;;;;;13.50;5.60;;;;;;;16.14;63.97;98759.86;105862;1279;107746;-61
2022/07/10 05:46:57;;;;;;;13.30;5.50;;;;;;;16.16;64.10;98761.31;105799;1279;96695;-64
2022/07/10 05:49:25;;;;;;;15.20;6.00;;;;;;;16.16;64.10;98758.42;105823;1279;99244;-63
2022/07/10 05:51:53;;;;;;;13.90;5.70;;;;;;;16.18;64.04;98760.91;105774;1279;113263;-64
2022/07/10 05:54:21;;;;;;;14.80;5.30;;;;;;;16.19;64.00;98764.16;105763;1279;99075;-63
2022/07/10 05:56:51;;;;;;;15.90;6.30;;;;;;;16.21;63.92;98766.70;105755;1279;108761;-65
2022/07/10 05:59:19;;;;;;;13.60;5.90;;;;;;;16.17;64.10;98763.00;105762;1279;99191;-65
2022/07/10 06:01:46;;;;;;;16.10;5.80;;;;;;;16.14;63.99;98760.91;105796;1279;99379;-64
2022/07/10 06:04:15;;;;;;;13.00;6.20;;;;;;;16.16;64.08;98757.49;105773;1279;112793;-64
2022/07/10 06:06:43;;;;;;;14.90;6.20;;;;;;;16.14;64.00;98756.64;105802;1279;99246;-62
2022/07/10 06:09:11;;;;;;;15.00;6.70;;;;;;;16.18;64.16;98760.36;105753;1279;108364;-63
2022/07/10 06:11:41;;;;;;;15.80;6.10;;;;;;;16.30;64.15;98755.05;105690;1281;99247;-64
2022/07/10 06:14:09;;;;;;;16.60;6.10;;;;;;;16.40;64.06;98753.68;105843;1279;99219;-64
2022/07/10 06:16:37;;;;;;;13.40;6.20;;;;;;;16.47;63.97;98758.84;105789;1281;113260;-63
2022/07/10 06:19:06;;;;;;;16.30;5.90;;;;;;;16.50;63.98;98758.52;105828;1279;96985;-65
2022/07/10 06:21:34;;;;;;;19.20;6.60;;;;;;;16.47;63.92;98757.98;105865;1279;108491;-64
2022/07/10 06:24:02;;;;;;;14.80;6.00;;;;;;;16.45;64.17;98755.64;105889;1279;96623;-64
2022/07/10 06:26:30;;;;;;;12.80;5.90;;;;;;;16.47;64.31;98752.63;105907;1279;99343;-66
2022/07/10 06:28:58;;;;;;;15.50;6.50;;;;;;;16.53;64.14;98749.31;105819;1279;113397;-64
2022/07/10 06:31:26;;;;;;;15.00;5.90;;;;;;;16.69;64.00;98749.30;105793;1279;99357;-64
2022/07/10 06:33:55;;;;;;;14.00;6.30;;;;;;;16.84;63.71;98749.75;105745;1279;108370;-66
2022/07/10 06:36:23;;;;;;;14.90;5.90;;;;;;;16.92;63.75;98744.77;105793;1279;99234;-66
2022/07/10 06:38:53;;;;;;;16.80;5.60;;;;;;;17.05;63.80;98742.80;105779;1279;97766;-65
2022/07/10 06:41:21;;;;;;;14.00;5.80;;;;;;;17.14;63.94;98746.83;105777;1279;113161;-63
2022/07/10 06:43:49;;;;;;;13.70;5.50;;;;;;;17.25;63.69;98740.09;105727;1281;99358;-65
2022/07/10 06:46:17;;;;;;;14.20;6.20;;;;;;;17.38;64.25;98732.98;105740;1279;108178;-65
2022/07/10 06:48:45;;;;;;;15.40;5.90;;;;;;;17.52;64.01;98732.05;105729;1281;100746;-65
2022/07/10 06:51:13;;;;;;;16.00;6.10;;;;;;;17.60;64.02;98728.39;105722;1281;99445;-66
2022/07/10 06:53:45;;;;;;;17.00;6.60;;;;;;;17.75;64.15;98726.83;105751;1279;113252;-65
2022/07/10 06:56:15;;;;;;;13.10;5.70;;;;;;;17.90;63.96;98724.27;105853;1279;99229;-64
2022/07/10 06:58:43;;;;;;;14.30;5.60;;;;;;;18.07;63.93;98729.03;105814;1279;108747;-65
2022/07/10 07:01:11;;;;;;;13.50;5.70;;;;;;;18.32;63.90;98720.77;105721;1281;96722;-65
2022/07/10 07:03:40;;;;;;;12.00;4.80;;;;;;;18.52;63.64;98720.97;105801;1279;96686;-64
2022/07/10 07:06:10;;;;;;;9.00;4.80;;;;;;;18.62;63.55;98719.13;105750;1279;113423;-63
2022/07/10 07:08:39;;;;;;;12.90;4.90;;;;;;;18.92;63.43;98716.45;105824;1279;99241;-64
2022/07/10 07:11:08;;;;;;;11.60;4.50;;;;;;;19.08;63.53;98711.58;105789;1279;108382;-65
2022/07/10 07:13:36;;;;;;;12.30;4.40;;;;;;;19.16;63.41;98714.60;105870;1278;99283;-64
2022/07/10 07:16:07;;;;;;;9.30;3.80;;;;;;;19.31;63.07;98711.71;105901;1279;99336;-65
2022/07/10 07:18:37;;;;;;;8.80;4.10;;;;;;;19.40;63.09;98713.42;105866;1279;112720;-64
2022/07/10 07:23:52;;;;;;;10.50;3.80;;;;;;;21.61;61.52;98706.56;105876;1279;106534;-66
2022/07/10 07:26:20;;;;;;;7.50;3.20;;;;;;;22.58;61.39;98707.43;105905;1279;96668;-66
2022/07/10 07:28:48;;;;;;;11.30;3.70;;;;;;;23.06;62.21;98701.89;105914;1279;99309;-65
2022/07/10 07:31:17;;;;;;;14.30;4.10;;;;;;;22.96;62.35;98703.69;105872;1279;112062;-65
2022/07/10 07:33:46;;;;;;;7.10;3.00;;;;;;;23.41;61.97;98701.88;105760;1279;97630;-64
2022/07/10 07:36:14;;;;;;;6.10;2.80;;;;;;;23.79;61.50;98696.79;105700;1279;107341;-65
2022/07/10 07:38:42;;;;;;;6.50;2.70;;;;;;;24.88;59.97;98694.62;105867;1279;99356;-68
2022/07/10 07:41:10;;;;;;;3.30;2.40;;;;;;;26.17;59.87;98693.30;105878;1279;99213;-67
2022/07/10 07:43:39;;;;;;;7.50;2.90;;;;;;;27.42;59.34;98689.16;105714;1279;113396;-67
2022/07/10 07:46:07;;;;;;;9.10;3.00;;;;;;;28.50;59.27;98684.98;105774;1279;99584;-70
2022/07/10 07:48:35;;;;;;;6.00;2.50;;;;;;;29.64;59.11;98685.48;105830;1279;108304;-67
2022/07/10 07:51:04;;;;;;;10.40;3.00;;;;;;;30.76;58.24;98680.64;105867;1278;99909;-66
2022/07/10 07:53:32;;;;;;;7.80;2.60;;;;;;;31.74;58.01;98681.03;105953;1279;99333;-64
2022/07/10 07:56:01;;;;;;;5.30;2.50;;;;;;;32.49;57.54;98681.65;105751;1279;113318;-65
2022/07/10 07:58:29;;;;;;;5.40;2.40;;;;;;;32.94;57.21;98682.20;105774;1278;99209;-64
2022/07/10 08:00:58;;;;;;;7.80;2.70;;;;;;;32.25;58.47;98683.39;105908;1278;109026;-67
2022/07/10 08:03:26;;;;;;;3.60;2.50;;;;;;;31.25;58.43;98684.46;105898;1279;99423;-67
2022/07/10 08:06:14;;;;;;;3.50;2.30;;;;;;;30.52;57.27;98683.64;105893;1278;99267;-67
2022/07/10 08:08:42;;;;;;;7.20;2.60;;;;;;;29.88;57.10;98687.85;106005;1278;114137;-65
2022/07/10 08:11:11;;;;;;;4.30;2.50;;;;;;;29.07;56.48;98702.06;106011;1278;96979;-66
2022/07/10 08:13:39;;;;;;;15.20;2.40;;;;;;;27.65;54.63;98728.80;105933;1279;107982;-66
2022/07/10 08:16:07;;;;;;;7.20;1.40;;;;;;;25.85;53.75;98749.46;105926;1278;96636;-65
2022/07/10 08:18:36;;;;;;;4.00;1.40;;;;;;;24.29;53.59;98757.39;105845;1279;99308;-66
2022/07/10 08:21:05;;;;;;;1.00;0.80;;;;;;;23.04;53.41;98763.81;105852;1278;112689;-66
2022/07/10 08:23:33;;;;;;;3.70;1.20;;;;;;;21.89;52.80;98776.39;105871;1278;99241;-67
2022/07/10 08:26:01;;;;;;;1.30;1.20;;;;;;;20.80;52.55;98776.95;105915;1277;107386;-62
2022/07/10 08:28:30;;;;;;;2.70;1.30;;;;;;;19.92;52.49;98786.92;105827;1277;99343;-64
2022/07/10 08:30:58;;;;;;;9.20;1.10;;;;;;;19.15;52.21;98795.27;105915;1278;99344;-64
2022/07/10 08:33:26;;;;;;;3.00;1.10;;;;;;;18.53;52.36;98795.96;105828;1278;113449;-65
2022/07/10 08:35:58;;;;;;;3.40;1.20;;;;;;;18.14;52.47;98801.52;105952;1278;97830;-66
2022/07/10 08:38:47;;;;;;;1.80;0.90;;;;;;;17.67;52.14;98805.58;105939;1278;108803;-64
2022/07/10 08:41:17;;;;;;;1.40;0.80;;;;;;;17.18;52.08;98811.28;105965;1278;99312;-65
2022/07/10 08:43:46;;;;;;;2.90;1.20;;;;;;;16.83;52.38;98816.36;105898;1278;99233;-65
2022/07/10 08:46:14;;;;;;;1.10;1.00;;;;;;;16.56;52.28;98820.81;105921;1277;113113;-64
2022/07/10 08:48:47;;;;;;;2.30;1.00;;;;;;;16.30;52.61;98824.87;105979;1277;99266;-64
2022/07/10 08:51:35;;;;;;;1.20;0.70;;;;;;;16.19;52.60;98824.33;105906;1278;108433;-64
2022/07/10 08:54:06;;;;;;;1.20;0.80;;;;;;;15.98;52.43;98823.91;105929;1277;99241;-64
2022/07/10 08:56:36;;;;;;;1.20;1.00;;;;;;;15.74;52.18;98819.23;105866;1278;97646;-65
2022/07/10 08:59:06;;;;;;;2.30;0.80;;;;;;;15.56;52.64;98816.73;105870;1278;112474;-65
2022/07/10 09:01:34;;;;;;;3.70;1.40;;;;;;;15.43;52.78;98818.29;105913;1278;99233;-64
2022/07/10 09:04:03;;;;;;;2.70;1.00;;;;;;;15.35;52.74;98811.91;105849;1277;107719;-64
2022/07/10 09:06:31;;;;;;;1.60;0.80;;;;;;;15.28;53.19;98804.14;105870;1278;99320;-65
2022/07/10 09:09:07;;;;;;;2.50;1.30;;;;;;;15.25;53.33;98802.86;105902;1279;99426;-66
2022/07/10 09:11:40;;;;;;;3.70;1.30;;;;;;;15.23;53.50;98804.17;105952;1278;113375;-64
2022/07/10 09:14:11;;;;;;;2.40;1.60;;;;;;;15.24;53.97;98804.20;105963;1278;98627;-64
2022/07/10 09:16:43;;;;;;;1.90;1.30;;;;;;;15.34;54.15;98804.36;106002;1278;107705;-65
2022/07/10 09:19:17;;;;;;;1.40;1.20;;;;;;;15.41;54.07;98804.93;105992;1280;96644;-65
2022/07/10 09:21:47;;;;;;;2.00;1.20;;;;;;;15.46;54.31;98804.05;105957;1278;99348;-63
2022/07/10 09:24:23;;;;;;;3.40;1.30;;;;;;;15.50;54.38;98806.83;105990;1278;112936;-64
2022/07/10 09:27:04;;;;;;;1.50;1.40;;;;;;;15.55;54.47;98804.94;105973;1279;99319;-65
2022/07/10 09:29:45;;;;;;;2.60;1.20;;;;;;;15.58;54.63;98807.39;105948;1278;106098;-64
2022/07/10 09:32:17;;;;;;;2.70;1.60;;;;;;;15.59;54.52;98810.86;105937;1279;99324;-64
2022/07/10 09:34:47;;;;;;;1.60;1.30;;;;;;;15.61;54.52;98815.95;105968;1279;99232;-64
2022/07/10 09:37:18;;;;;;;2.10;0.80;;;;;;;15.64;54.67;98811.23;105975;1279;112770;-64
2022/07/10 09:39:52;;;;;;;2.60;1.70;;;;;;;15.75;55.01;98813.05;105959;1279;99213;-63
2022/07/10 09:42:33;;;;;;;5.30;1.70;;;;;;;15.88;55.08;98815.54;105826;1279;107803;-65
2022/07/10 09:45:17;;;;;;;3.90;1.90;;;;;;;16.02;55.33;98807.72;105823;1278;99301;-65
2022/07/10 09:47:57;;;;;;;3.10;1.30;;;;;;;16.41;55.50;98803.89;105936;1279;99209;-65
2022/07/10 09:50:33;;;;;;;2.90;1.70;;;;;;;16.62;55.51;98807.10;106027;1278;112845;-63
2022/07/10 09:53:03;;;;;;;3.80;1.50;;;;;;;16.69;55.58;98809.77;105988;1279;99321;-65
2022/07/10 09:55:34;;;;;;;5.20;1.40;;;;;;;16.73;55.63;98811.59;105882;1278;106133;-65
2022/07/10 09:58:04;;;;;;;3.60;1.30;;;;;;;16.72;55.68;98815.25;105801;1277;97134;-65
2022/07/10 10:00:34;;;;;;;3.00;1.70;;;;;;;16.95;55.83;98808.42;105777;1279;99217;-64
2022/07/10 10:03:05;;;;;;;2.30;1.60;;;;;;;17.39;56.17;98804.61;105833;1278;113445;-62
2022/07/10 10:05:54;;;;;;;3.10;1.10;;;;;;;17.69;56.36;98801.11;105874;1278;98697;-66
2022/07/10 10:08:30;;;;;;;3.00;1.00;;;;;;;17.91;56.15;98797.46;105819;1279;108248;-66
2022/07/10 10:10:59;;;;;;;2.60;1.30;;;;;;;18.04;56.52;98796.37;105796;1278;99218;-67
2022/07/10 10:13:30;;;;;;;2.30;1.30;;;;;;;18.16;56.39;98795.71;105894;1278;99439;-64
2022/07/10 10:15:57;;;;;;;1.70;1.10;;;;;;;18.23;56.38;98791.91;105866;1279;112766;-65
2022/07/10 10:18:27;;;;;;;1.30;1.10;;;;;;;18.34;56.60;98784.84;105896;1279;99238;-65
2022/07/10 10:20:56;;;;;;;2.20;1.30;;;;;;;18.45;56.45;98785.37;105788;1278;108354;-64
2022/07/10 10:23:26;;;;;;;2.20;1.10;;;;;;;18.45;56.42;98782.48;105820;1279;97550;-63
2022/07/10 10:25:56;;;;;;;2.30;1.50;;;;;;;18.37;56.36;98777.46;105861;1280;97716;-64
2022/07/10 10:28:26;;;;;;;4.60;1.40;;;;;;;18.28;56.45;98768.21;105838;1279;111241;-64
2022/07/10 10:30:58;;;;;;;1.50;1.30;;;;;;;18.30;56.60;98768.73;105863;1279;98338;-65
2022/07/10 10:33:31;;;;;;;3.20;1.40;;;;;;;18.40;56.79;98760.09;105923;1279;106741;-65
2022/07/10 10:36:05;;;;;;;1.80;1.10;;;;;;;18.52;56.72;98753.83;105758;1279;99321;-65
2022/07/10 10:38:49;;;;;;;1.00;0.90;;;;;;;18.64;56.78;98748.71;105797;1279;99246;-65
2022/07/10 10:41:26;;;;;;;;;;;;;;;18.68;56.63;98746.21;105748;1278;113432;-62
2022/07/10 10:44:07;;;;;;;1.80;0.90;;;;;;;18.62;56.80;98750.91;105860;1279;99224;-66
2022/07/10 10:46:56;;;;;;;0.80;0.80;;;;;;;18.53;56.58;98747.01;105697;1279;108300;-62
2022/07/10 10:49:25;;;;;;;0.80;0.80;;;;;;;18.47;56.62;98741.64;105760;1279;99255;-66
2022/07/10 10:52:02;;;;;;;4.80;0.90;;;;;;;18.48;56.69;98738.03;105852;1279;99199;-64
2022/07/10 10:54:56;;;;;;;1.10;1.00;;;;;;;18.47;56.89;98744.77;105737;1278;113441;-65
2022/07/10 10:57:36;;;;;;;3.10;1.30;;;;;;;18.42;56.87;98751.65;105541;1279;99286;-64
2022/07/10 11:00:07;;;;;;;1.10;1.00;;;;;;;18.39;56.95;98753.23;107494;1279;107783;-63
2022/07/10 11:02:40;;;;;;;1.90;1.20;;;;;;;18.49;57.07;98757.46;106600;1279;99239;-64
2022/07/10 11:05:11;;;;;;;4.10;1.50;;;;;;;18.63;57.10;98754.67;105788;1279;99213;-64
2022/07/10 11:07:55;;;;;;;3.70;1.50;;;;;;;18.72;57.07;98749.92;107010;1278;112865;-64
2022/07/10 11:10:28;;;;;;;2.00;1.40;;;;;;;18.81;57.16;98754.40;105906;1279;99329;-66
2022/07/10 11:13:02;;;;;;;1.70;1.20;;;;;;;18.80;57.07;98758.77;105867;1279;108333;-64
2022/07/10 11:15:32;;;;;;;;;;;;;;;18.73;57.07;98770.31;105873;1279;99632;-63
2022/07/10 11:18:11;;;;;;;2.90;1.40;;;;;;;18.57;57.19;98777.79;106523;1277;97829;-63
2022/07/10 11:20:50;;;;;;;3.80;1.30;;;;;;;18.45;57.25;98780.36;106139;1279;112774;-64
2022/07/10 11:23:27;;;;;;;4.50;1.70;;;;;;;18.32;57.18;98789.02;106319;1279;99295;-64
2022/07/10 11:26:12;;;;;;;1.90;1.40;;;;;;;18.20;57.22;98796.71;105659;1279;108394;-63
2022/07/10 11:28:58;;;;;;;3.30;2.00;;;;;;;18.10;57.38;98798.36;105615;1279;99365;-64
2022/07/10 11:31:29;;;;;;;5.60;1.80;;;;;;;18.03;57.32;98788.69;105764;1279;99211;-65
2022/07/10 11:33:58;;;;;;;4.10;1.70;;;;;;;18.02;57.47;98790.28;105940;1279;112678;-65